Terminal Aerodrome Forecast
Issued by NWS

Home | Current Version | Previous Version | Text Only | Print | Product List | Glossary On
Versions: 1 2 3 4 5 6 7 8 9 10 11 12 13 14 15 16 17 18 19 20 21 22 23 24 25 26 27 28 29 30 31 32 33 34 35 36 37 38 39 40 41 42 43 44 45 46 47 48 49 50
961
FTUS43 KMKX 210222 AAA
TAFUES
TAF AMD
KUES 210222Z 2102/2124 10005KT 1SM BR OVC003
      TEMPO 2103/2105 1/2SM -DZ FG OVC002
     FM210500 10004KT 1/4SM -DZ FG OVC003
     FM211600 15005KT 1SM -DZ BR OVC003
     FM211800 16006KT 3SM -DZ BR OVC003
     FM212000 17006KT 3SM -DZ BR OVC010=

USA.gov is the U.S. government's official web portal to all federal, state and local government web resources and services.